メインページ
METAR-TAF:

METAR-TAF

空港 :

プラハ, チェコ共和国

ヴァーツラフ・ハヴェル・プラハ国際空港

緯度: 50-06N, 経度: 014-15E, 海抜: 365m

現時点の気象観測

当レポートは8分前の15:30(UTC)に作成
南/南西の風 6kt
気温 17°C
湿度 82%
気圧 1013 hPa
視程10km以上
高度4000ftの雲はほとんどない

METAR: LKPR 231530Z 20006KT 9999 FEW040 17/14 Q1013 NOSIG

時間: 17:38 (15:38 UTC)

予報

当レポートは4時間38分前の11:00(UTC)に作成
予報は23日の 12時(UTC)から 24日の 18時(UTC)まで有効
西/南西の風 14kt
視程10km以上
1,500メートル以下は雲なし、積乱雲なし
23日の 12時(UTC)から 24日の 01時(UTC)まで一時的に
視程: 7000m
高度4000ftの千切れ雲あり
にわか雨
確率 30% :
23日の 13時(UTC)から 23日の 21時(UTC)まで一時的に
西の風 20kt、最大36ktの突風を伴う
視程: 3000m
高度3000ftの雲は散在している, 積乱雲.
激しい雷雨, 雨
確率 40% :
24日の 09時(UTC)から 24日の 16時(UTC)まで一時的に
視程: 9000m
高度4000ftの雲は散在している, 塔状積雲.
にわか雨

TAF: LKPR 231100Z 2312/2418 25014KT CAVOK TEMPO 2312/2401 7000 SHRA BKN040 PROB30 TEMPO 2313/2321 28020G36KT 3000 TSRA SCT030CB PROB40 TEMPO 2409/2416 9000 SHRA SCT040TCU

4,000以上の空港の気象観測と天気予報(METAR報とTAF報)

利用可能な観測所は地図上に黄色い丸と赤い丸で示す。

丸の上にカーソルを重ねると観測所名を参照できる。

次にクリックすると気象観測と天気予報を参照できる。

マップの切り替え:黒色「×」印の緑ボタンをクリックして拡大、「-」印の緑ボタンをクリックして縮小、緑色の三角印をクリックして隣りの地図に切り替え


METAR-TAF: